Hornell, NY (14843)

7:21 PM EDT on April 19, 2015 (GMT -0400)
Fremont, NY | | Change Station
CLOSE
Current Station
Personal Weather Station
Location: Arkport, NY
Elevation: 1909 ft
Nearby Weather Stations

Elev 1909 ft 42.42 °N, 77.63 °W | Updated 1 minute ago

Clear
Clear
58.8 °F
Feels Like 58.8 °F
N
6.0
Wind Variable Wind from SE
Gusts 6.0 mph

Today
High -- | Low -- °F
--% Chance of Precip.
Yesterday
High -- | Low -- °F
Precip. -- in
6:23 AM 7:56 PM
New Moon, 2% visible
Pressure 29.96 in
Visibility 10.0 miles
Clouds Clear
Dew Point 28 °F
Humidity 31%
Rainfall 0.00 in
Snow Depth Not available.
UV 1 out of 12
Pollen 9.70 out of 12
Air Quality Not available.
Flu Activity Widespread
METAR KDSV 192254Z AUTO 13007KT 10SM CLR 21/M01 A2993 RMK AO2 SLP144 T02061006

More Conditions Fewer Conditions

Pressure 29.96 in
Visibility 10.0 miles
Clouds Clear
Dew Point 28 °F
Humidity 31%
Rainfall 0.00 in
Snow Depth Not available.
UV 1 out of 12
Pollen 9.70 out of 12
Air Quality Not available.
Flu Activity Widespread
METAR KDSV 192254Z AUTO 13007KT 10SM CLR 21/M01 A2993 RMK AO2 SLP144 T02061006

More Conditions Fewer Conditions

10-Day Weather Forecast

Almanac

Astronomy

Apr. 19, 2015 Rise Set
Actual Time
Civil Twilight
Nautical Twilight
Astronomical Twilight
Moon
Length of Visible Light
Length of Day
Tomorrow will be .
, % of the Moon is Illuminated

Today's Extremes

State Highs State Lows

Community

WunderPhotos

Upload Photos

1,815,030 photos uploaded!

WunderBlogs® & News

Nearby

Air Quality

  Air Quality AQ Index Pollutant
Not available.

Snow Depth

Station Depth Elevation

Earthquake Activity

City Distance Mag. Time & Date
Minimum magnitude displayed is 2.5.

Coastal Water Temperatures

Place Temperature

Stations

Nearby Weather Stations

Station Location Temp. Windchill Dew Point Humidity Wind Precip. Elev Updated Type